Time;durP1;ratioP1;P1;durP2;ratioP2;P2;SDS_P1;SDS_P2;PMS_P1;PMS_P2;Temp;Humidity;BMP_temperature;BMP_pressure;BME280_temperature;BME280_humidity;BME280_pressure;Samples;Min_cycle;Max_cycle;Signal;HPM_P1;HPM_P2
2022/03/09 00:01:15;;;;;;;;;;;;;;;28.22;56.97;96999.25;586664;242;68704;-63
2022/03/09 00:03:43;;;;;;;;;;;;;;;28.22;57.06;96998.45;586671;242;69489;-63
2022/03/09 00:06:10;;;;;;;;;;;;;;;28.20;57.48;96997.97;586687;242;65230;-63
2022/03/09 00:08:38;;;;;;;;;;;;;;;28.19;57.24;96994.48;586701;242;68552;-63
2022/03/09 00:11:06;;;;;;;;;;;;;;;28.19;57.28;96996.39;586725;242;68721;-63
2022/03/09 00:13:33;;;;;;;;;;;;;;;28.18;57.38;96994.79;586674;242;65353;-63
2022/03/09 00:16:00;;;;;;;;;;;;;;;28.18;57.18;96994.79;586658;242;69143;-63
2022/03/09 00:18:28;;;;;;;;;;;;;;;28.16;57.10;96986.23;586690;242;68606;-62
2022/03/09 00:20:55;;;;;;;;;;;;;;;28.15;58.83;97000.83;586662;242;65301;-63
2022/03/09 00:23:23;;;;;;;;;;;;;;;28.13;55.84;96993.06;586731;242;68870;-63
2022/03/09 00:25:50;;;;;;;;;;;;;;;28.13;56.31;96994.95;586676;242;66707;-63
2022/03/09 00:28:18;;;;;;;;;;;;;;;28.11;57.36;96993.37;586681;242;63268;-63
2022/03/09 00:30:45;;;;;;;;;;;;;;;28.09;57.35;96990.18;586702;242;66460;-63
2022/03/09 00:33:13;;;;;;;;;;;;;;;28.09;57.82;96992.09;586665;242;66742;-63
2022/03/09 00:35:42;;;;;;;;;;;;;;;28.07;57.47;96987.03;586686;242;63250;-63
2022/03/09 00:38:10;;;;;;;;;;;;;;;28.07;57.26;96995.12;586604;242;68747;-63
2022/03/09 00:40:37;;;;;;;;;;;;;;;28.06;56.80;96990.03;586682;242;68492;-63
2022/03/09 00:43:05;;;;;;;;;;;;;;;28.04;54.21;96982.23;586696;242;65353;-63
2022/03/09 00:45:32;;;;;;;;;;;;;;;28.03;56.08;96977.16;587795;240;68823;-63
2022/03/09 00:48:00;;;;;;;;;;;;;;;28.03;57.17;96977.16;589479;240;68722;-63
2022/03/09 00:50:27;;;;;;;;;;;;;;;28.01;56.96;96984.78;589441;240;65468;-63
2022/03/09 00:52:55;;;;;;;;;;;;;;;28.01;57.61;96979.38;589460;240;68823;-63
2022/03/09 00:55:22;;;;;;;;;;;;;;;27.99;57.86;96976.20;589496;240;68430;-62
2022/03/09 00:57:50;;;;;;;;;;;;;;;27.99;56.95;96981.59;589426;240;65280;-63
2022/03/09 01:00:18;;;;;;;;;;;;;;;27.96;57.99;96985.72;589497;240;68788;-63
2022/03/09 01:02:46;;;;;;;;;;;;;;;27.96;55.29;96987.64;589394;240;69073;-63
2022/03/09 01:05:14;;;;;;;;;;;;;;;27.96;56.68;96983.02;589451;239;65338;-63
2022/03/09 01:07:42;;;;;;;;;;;;;;;27.95;55.38;96986.06;589444;240;68762;-63
2022/03/09 01:10:10;;;;;;;;;;;;;;;27.95;57.40;96986.06;589419;239;66575;-63
2022/03/09 01:12:38;;;;;;;;;;;;;;;27.91;58.31;96983.20;589434;240;65552;-63
2022/03/09 01:15:06;;;;;;;;;;;;;;;27.91;57.35;96985.09;589478;240;68844;-63
2022/03/09 01:17:33;;;;;;;;;;;;;;;27.89;57.10;96980.81;589422;240;68743;-63
2022/03/09 01:20:01;;;;;;;;;;;;;;;27.89;57.02;96974.63;589439;240;65374;-63
2022/03/09 01:22:28;;;;;;;;;;;;;;;27.88;58.08;96981.11;589470;240;68503;-63
2022/03/09 01:24:56;;;;;;;;;;;;;;;27.85;56.45;96977.14;589425;239;68713;-63
2022/03/09 01:27:23;;;;;;;;;;;;;;;27.85;57.27;96974.44;589473;240;65321;-63
2022/03/09 01:29:51;;;;;;;;;;;;;;;27.84;56.41;96972.86;589416;240;69045;-63
2022/03/09 01:32:21;;;;;;;;;;;;;;;27.84;58.83;96975.56;589412;240;68659;-63
2022/03/09 01:34:47;;;;;;;;;;;;;;;27.81;55.43;96967.31;589433;239;65330;-63
2022/03/09 01:37:15;;;;;;;;;;;;;;;27.81;56.85;96970.80;589408;240;68619;-63
2022/03/09 01:39:42;;;;;;;;;;;;;;;27.81;58.09;96970.01;589455;240;68678;-63
2022/03/09 01:42:10;;;;;;;;;;;;;;;27.81;56.97;96975.41;589450;240;65402;-63
2022/03/09 01:44:37;;;;;;;;;;;;;;;27.79;58.74;96980.30;589335;240;66288;-63
2022/03/09 01:47:05;;;;;;;;;;;;;;;27.77;57.76;96975.20;586691;242;66406;-63
2022/03/09 01:49:33;;;;;;;;;;;;;;;27.75;58.34;96977.44;586687;242;65530;-63
2022/03/09 01:52:01;;;;;;;;;;;;;;;27.75;58.25;96972.04;586648;242;68357;-63
2022/03/09 01:54:29;;;;;;;;;;;;;;;27.74;57.61;96978.53;586677;242;68607;-63
2022/03/09 01:56:57;;;;;;;;;;;;;;;27.74;57.77;96975.83;586658;242;64084;-63
2022/03/09 01:59:25;;;;;;;;;;;;;;;27.73;55.94;96976.16;586670;242;66498;-63
2022/03/09 02:01:53;;;;;;;;;;;;;;;27.72;57.11;96979.95;586727;242;66444;-63
2022/03/09 02:04:21;;;;;;;;;;;;;;;27.72;58.52;96979.95;586683;242;65890;-63
2022/03/09 02:06:48;;;;;;;;;;;;;;;27.70;56.22;96971.40;586644;242;68486;-63
2022/03/09 02:12:01;;;;;;;;;;;;;;;27.68;55.05;96971.70;586668;242;65450;-63
2022/03/09 02:14:30;;;;;;;;;;;;;;;27.66;55.90;96966.63;586654;242;68677;-64
2022/03/09 02:16:59;;;;;;;;;;;;;;;27.65;56.60;96970.42;586693;242;68907;-63
2022/03/09 02:19:27;;;;;;;;;;;;;;;27.64;56.35;96966.15;586695;242;65671;-63
2022/03/09 02:21:58;;;;;;;;;;;;;;;27.64;55.89;96968.84;586632;242;68760;-63
2022/03/09 02:24:26;;;;;;;;;;;;;;;27.64;56.27;96968.84;586510;240;66605;-63
2022/03/09 02:26:54;;;;;;;;;;;;;;;27.60;55.74;96965.17;586658;242;63165;-63
2022/03/09 02:29:21;;;;;;;;;;;;;;;27.60;55.84;96962.47;586717;242;66584;-63
2022/03/09 02:31:49;;;;;;;;;;;;;;;27.60;55.46;96965.17;586652;242;66605;-63
2022/03/09 02:34:16;;;;;;;;;;;;;;;27.59;56.88;96960.11;586699;242;64099;-63
2022/03/09 02:36:44;;;;;;;;;;;;;;;27.58;57.46;96955.80;586628;242;68330;-63
2022/03/09 02:39:11;;;;;;;;;;;;;;;27.57;57.25;96965.81;586657;242;68761;-63
2022/03/09 02:41:39;;;;;;;;;;;;;;;27.54;55.35;96958.34;586692;242;63169;-63
2022/03/09 02:44:06;;;;;;;;;;;;;;;27.54;57.62;96961.05;586662;242;69178;-63
2022/03/09 02:46:34;;;;;;;;;;;;;;;27.53;56.12;96967.56;588963;240;68580;-63
2022/03/09 02:49:01;;;;;;;;;;;;;;;27.51;57.03;96969.77;589426;240;65282;-63
2022/03/09 02:51:29;;;;;;;;;;;;;;;27.50;56.99;96973.59;589423;240;68890;-63
2022/03/09 02:53:57;;;;;;;;;;;;;;;27.51;56.83;96966.28;589444;240;66630;-63
2022/03/09 02:56:24;;;;;;;;;;;;;;;27.49;58.75;96973.89;589504;240;63172;-63
2022/03/09 02:58:52;;;;;;;;;;;;;;;27.48;56.62;96975.02;589410;240;66578;-63
2022/03/09 03:01:19;;;;;;;;;;;;;;;27.47;57.55;96968.80;589408;240;68619;-63
2022/03/09 03:03:47;;;;;;;;;;;;;;;27.46;57.00;96967.22;589418;240;63298;-63
2022/03/09 03:06:15;;;;;;;;;;;;;;;27.44;56.96;96972.92;589363;240;66693;-63
2022/03/09 03:08:42;;;;;;;;;;;;;;;27.44;56.97;96972.12;589496;240;66772;-62
2022/03/09 03:11:11;;;;;;;;;;;;;;;27.44;58.56;96974.83;589433;240;62935;-63
2022/03/09 03:13:40;;;;;;;;;;;;;;;27.41;57.84;96973.55;589415;240;66658;-62
2022/03/09 03:16:08;;;;;;;;;;;;;;;27.40;58.38;96969.27;589412;239;68922;-63
2022/03/09 03:18:36;;;;;;;;;;;;;;;27.39;58.09;96970.39;589421;240;65288;-63
2022/03/09 03:21:04;;;;;;;;;;;;;;;27.38;59.02;96966.09;589484;240;68822;-63
2022/03/09 03:23:32;;;;;;;;;;;;;;;27.38;58.17;96973.39;589453;240;68320;-63
2022/03/09 03:26:00;;;;;;;;;;;;;;;27.37;58.67;96977.21;589418;240;65576;-62
2022/03/09 03:28:28;;;;;;;;;;;;;;;27.35;57.67;96974.02;589394;240;68787;-63
2022/03/09 03:30:55;;;;;;;;;;;;;;;27.34;59.00;96975.14;589415;240;67062;-63
2022/03/09 03:33:23;;;;;;;;;;;;;;;27.33;58.85;96973.53;589473;240;63279;-63
2022/03/09 03:35:50;;;;;;;;;;;;;;;27.34;60.88;96975.14;589405;240;66590;-63
2022/03/09 03:38:18;;;;;;;;;;;;;;;27.31;58.62;96973.05;589400;239;66722;-63
2022/03/09 03:40:45;;;;;;;;;;;;;;;27.30;57.45;96971.47;589429;240;63182;-63
2022/03/09 03:43:13;;;;;;;;;;;;;;;27.29;58.40;96973.38;589402;240;66600;-63
2022/03/09 03:45:41;;;;;;;;;;;;;;;27.27;58.88;96972.09;588851;240;66731;-63
2022/03/09 03:48:08;;;;;;;;;;;;;;;27.26;60.35;96963.21;588388;241;63261;-63
2022/03/09 03:50:36;;;;;;;;;;;;;;;27.26;60.21;96971.30;588337;241;66358;-63
2022/03/09 03:53:03;;;;;;;;;;;;;;;27.23;57.30;96980.81;588327;241;66712;-63
2022/03/09 03:55:31;;;;;;;;;;;;;;;27.23;60.83;96972.72;588291;241;63175;-63
2022/03/09 03:57:58;;;;;;;;;;;;;;;27.21;59.41;96972.23;588295;240;66838;-63
2022/03/09 04:00:26;;;;;;;;;;;;;;;27.21;59.31;96968.75;588382;241;66640;-63
2022/03/09 04:02:53;;;;;;;;;;;;;;;27.19;59.03;96960.16;588319;241;63179;-63
2022/03/09 04:05:21;;;;;;;;;;;;;;;27.19;60.19;96965.56;588314;241;66601;-63
2022/03/09 04:07:48;;;;;;;;;;;;;;;27.17;58.35;96962.37;588316;241;66707;-63
2022/03/09 04:10:16;;;;;;;;;;;;;;;27.15;60.67;96968.06;588278;241;63195;-63
2022/03/09 04:12:43;;;;;;;;;;;;;;;27.14;58.75;96969.16;588402;241;66631;-63
2022/03/09 04:15:11;;;;;;;;;;;;;;;27.13;58.75;96967.58;588278;241;66756;-63
2022/03/09 04:17:39;;;;;;;;;;;;;;;27.12;60.38;96971.39;588352;241;63166;-63
2022/03/09 04:20:07;;;;;;;;;;;;;;;27.11;58.27;96968.99;588266;241;66710;-63
2022/03/09 04:22:35;;;;;;;;;;;;;;;27.12;60.95;96971.39;588308;241;68772;-63
2022/03/09 04:25:03;;;;;;;;;;;;;;;27.09;58.25;96972.02;588341;241;65261;-63
2022/03/09 04:27:30;;;;;;;;;;;;;;;27.08;59.68;96970.41;588332;241;68817;-63
2022/03/09 04:29:58;;;;;;;;;;;;;;;27.06;59.00;96967.22;588313;239;68856;-63
2022/03/09 04:32:25;;;;;;;;;;;;;;;27.05;60.98;96971.03;588327;241;65412;-63
2022/03/09 04:34:53;;;;;;;;;;;;;;;27.03;59.23;96962.45;588326;241;66561;-63
2022/03/09 04:37:21;;;;;;;;;;;;;;;27.04;59.40;96963.23;588363;241;66321;-63
2022/03/09 04:39:48;;;;;;;;;;;;;;;27.01;60.16;96960.08;588350;241;66088;-62
2022/03/09 04:42:16;;;;;;;;;;;;;;;27.03;61.25;96967.06;588346;241;68856;-62
2022/03/09 04:44:44;;;;;;;;;;;;;;;27.00;57.51;96963.87;588258;241;67094;-63
2022/03/09 04:47:11;;;;;;;;;;;;;;;26.99;58.57;96970.38;588308;241;66356;-63
2022/03/09 04:49:39;;;;;;;;;;;;;;;26.99;60.93;96967.69;588334;241;68869;-63
2022/03/09 04:52:06;;;;;;;;;;;;;;;26.97;58.46;96975.28;588391;241;68723;-63
2022/03/09 04:54:35;;;;;;;;;;;;;;;26.96;59.72;96965.61;588312;241;65950;-63
2022/03/09 04:57:02;;;;;;;;;;;;;;;26.95;60.14;96966.70;588260;241;68807;-63
2022/03/09 04:59:31;;;;;;;;;;;;;;;26.95;60.35;96968.61;588330;238;66363;-66
2022/03/09 05:01:59;;;;;;;;;;;;;;;26.93;60.76;96965.45;588366;240;65270;-64
2022/03/09 05:04:30;;;;;;;;;;;;;;;26.91;58.25;96967.65;588384;240;49873;-63
2022/03/09 05:06:57;;;;;;;;;;;;;;;26.91;58.01;96968.44;588314;241;68757;-63
2022/03/09 05:09:25;;;;;;;;;;;;;;;26.90;59.69;96966.05;588316;241;65144;-64
2022/03/09 05:11:52;;;;;;;;;;;;;;;26.89;59.84;96967.16;588338;241;69006;-63
2022/03/09 05:14:20;;;;;;;;;;;;;;;26.89;58.56;96967.16;588351;241;69196;-63
2022/03/09 05:16:48;;;;;;;;;;;;;;;26.88;58.70;96968.27;588380;241;65368;-64
2022/03/09 05:19:15;;;;;;;;;;;;;;;26.86;58.38;96973.97;588307;240;68915;-64
2022/03/09 05:21:44;;;;;;;;;;;;;;;26.85;60.14;96983.17;588255;241;68588;-64
2022/03/09 05:24:12;;;;;;;;;;;;;;;26.82;61.72;96978.41;588325;241;65307;-64
2022/03/09 05:26:39;;;;;;;;;;;;;;;26.84;60.54;96986.95;588359;241;68660;-63
2022/03/09 05:29:07;;;;;;;;;;;;;;;26.84;60.74;96980.77;588350;241;68430;-64
2022/03/09 05:31:34;;;;;;;;;;;;;;;26.85;60.22;96987.78;588356;241;65551;-64
2022/03/09 05:34:03;;;;;;;;;;;;;;;26.84;60.38;96988.86;588309;241;66185;-63
2022/03/09 05:36:33;;;;;;;;;;;;;;;26.83;59.55;96998.06;588322;241;69723;-63
2022/03/09 05:39:00;;;;;;;;;;;;;;;26.82;58.30;96994.58;588302;241;65390;-63
2022/03/09 05:41:28;;;;;;;;;;;;;;;26.85;60.59;96993.17;588337;241;66264;-63
2022/03/09 05:43:57;;;;;;;;;;;;;;;26.83;60.00;96995.38;588334;241;66627;-63
2022/03/09 05:46:25;;;;;;;;;;;;;;;26.84;59.30;96994.25;589053;240;65563;-63
2022/03/09 05:48:52;;;;;;;;;;;;;;;26.85;59.65;97001.26;589471;240;68918;-63
2022/03/09 05:51:20;;;;;;;;;;;;;;;26.85;60.21;97003.95;589465;238;65974;-63
2022/03/09 05:53:47;;;;;;;;;;;;;;;26.85;61.43;96995.86;589454;240;65544;-64
2022/03/09 05:56:15;;;;;;;;;;;;;;;26.85;61.24;96993.95;589502;240;68492;-63
2022/03/09 05:58:42;;;;;;;;;;;;;;;26.83;61.49;96995.38;589424;239;68646;-63
2022/03/09 06:01:10;;;;;;;;;;;;;;;26.83;62.06;97000.77;589389;240;65449;-63
2022/03/09 06:03:37;;;;;;;;;;;;;;;26.84;61.63;97002.34;589454;240;68496;-63
2022/03/09 06:06:05;;;;;;;;;;;;;;;26.83;62.37;97003.46;589369;239;68312;-64
2022/03/09 06:08:32;;;;;;;;;;;;;;;26.84;62.33;97002.34;589479;240;65386;-63
2022/03/09 06:11:00;;;;;;;;;;;;;;;26.82;62.10;97002.67;589435;240;68488;-64
2022/03/09 06:13:27;;;;;;;;;;;;;;;26.85;62.90;97001.26;589426;240;68767;-63
2022/03/09 06:15:55;;;;;;;;;;;;;;;26.86;61.13;97006.32;589453;240;65756;-63
2022/03/09 06:18:22;;;;;;;;;;;;;;;26.86;61.28;97005.53;589417;240;68479;-63
2022/03/09 06:20:50;;;;;;;;;;;;;;;26.87;62.55;96997.12;589399;240;68506;-63
2022/03/09 06:23:18;;;;;;;;;;;;;;;26.87;62.37;97001.72;589450;240;63051;-63
2022/03/09 06:25:46;;;;;;;;;;;;;;;26.87;61.91;97001.72;589421;240;69013;-63
2022/03/09 06:28:15;;;;;;;;;;;;;;;26.88;62.54;96995.24;589430;240;66279;-63
2022/03/09 06:30:42;;;;;;;;;;;;;;;26.88;61.31;97000.63;589441;239;63120;-63
2022/03/09 06:33:10;;;;;;;;;;;;;;;26.89;61.38;97002.22;589421;239;66455;-63
2022/03/09 06:35:38;;;;;;;;;;;;;;;26.90;61.36;96996.52;589472;240;68587;-63
2022/03/09 06:38:06;;;;;;;;;;;;;;;26.91;61.72;97000.02;589364;240;64143;-63
2022/03/09 06:40:35;;;;;;;;;;;;;;;26.94;62.01;97000.17;589442;240;68987;-63
2022/03/09 06:43:02;;;;;;;;;;;;;;;26.95;60.46;96998.27;589420;240;68757;-63
2022/03/09 06:45:30;;;;;;;;;;;;;;;26.95;61.53;97004.45;589383;240;65279;-63
2022/03/09 06:47:57;;;;;;;;;;;;;;;26.95;60.48;97001.76;589415;240;68796;-63
2022/03/09 06:50:24;;;;;;;;;;;;;;;26.98;61.49;97009.25;589424;240;68748;-63
2022/03/09 06:52:52;;;;;;;;;;;;;;;26.98;60.87;97001.16;587223;240;64991;-63
2022/03/09 06:55:20;;;;;;;;;;;;;;;27.00;61.58;97003.53;589277;240;68773;-63
2022/03/09 06:57:47;;;;;;;;;;;;;;;27.00;60.51;97007.02;589419;240;68541;-62
2022/03/09 07:00:15;;;;;;;;;;;;;;;27.00;60.58;97003.53;589469;240;65627;-66
2022/03/09 07:02:43;;;;;;;;;;;;;;;27.00;60.79;97006.23;589449;238;68837;-63
2022/03/09 07:05:11;;;;;;;;;;;;;;;27.03;61.17;97012.91;589402;239;68676;-73
2022/03/09 07:07:39;;;;;;;;;;;;;;;27.00;60.22;97007.02;589452;240;65335;-71
2022/03/09 07:10:10;;;;;;;;;;;;;;;27.01;60.74;97008.63;589385;240;68908;-65
2022/03/09 07:12:37;;;;;;;;;;;;;;;27.02;59.65;97014.81;589348;239;69320;-59
2022/03/09 07:15:05;;;;;;;;;;;;;;;27.03;59.97;97000.21;589446;240;65646;-58
2022/03/09 07:17:32;;;;;;;;;;;;;;;27.05;59.85;97008.80;589395;240;68948;-74
2022/03/09 07:20:00;;;;;;;;;;;;;;;27.05;58.96;97006.09;589380;239;68578;-72
2022/03/09 07:22:27;;;;;;;;;;;;;;;27.07;58.89;97000.41;589380;240;65278;-69
2022/03/09 07:24:55;;;;;;;;;;;;;;;27.09;59.58;96998.98;589403;240;68744;-63
2022/03/09 07:27:22;;;;;;;;;;;;;;;27.10;58.59;97005.97;589440;240;68727;-70
2022/03/09 07:29:50;;;;;;;;;;;;;;;27.10;59.17;96995.17;589443;240;65339;-58
2022/03/09 07:32:17;;;;;;;;;;;;;;;27.12;58.44;96995.67;589375;240;68325;-72
2022/03/09 07:34:45;;;;;;;;;;;;;;;27.14;58.56;96993.43;588815;240;66326;-70
2022/03/09 07:37:12;;;;;;;;;;;;;;;27.18;58.79;96993.66;589394;240;63092;-74
2022/03/09 07:39:40;;;;;;;;;;;;;;;27.20;58.86;96994.94;589276;240;69017;-69
2022/03/09 07:42:07;;;;;;;;;;;;;;;27.23;58.95;96994.31;589209;240;68568;-73
2022/03/09 07:44:35;;;;;;;;;;;;;;;27.26;57.94;96997.50;589153;240;65104;-69
2022/03/09 07:47:03;;;;;;;;;;;;;;;27.30;58.83;96984.95;586563;242;66435;-70
2022/03/09 07:49:33;;;;;;;;;;;;;;;27.29;59.06;96986.08;586545;242;66487;-73
2022/03/09 07:52:00;;;;;;;;;;;;;;;27.33;58.21;96978.93;586527;240;63050;-73
2022/03/09 07:54:28;;;;;;;;;;;;;;;27.36;58.16;96986.39;586544;242;68804;-72
2022/03/09 07:56:56;;;;;;;;;;;;;;;27.37;58.97;96982.61;586556;242;68759;-73
2022/03/09 07:59:26;;;;;;;;;;;;;;;27.40;58.24;96984.67;586575;242;63060;-67
2022/03/09 08:01:54;;;;;;;;;;;;;;;27.42;57.82;96979.77;586542;240;72693;-63
2022/03/09 08:04:21;;;;;;;;;;;;;;;27.44;58.04;96977.53;586557;242;66716;-63
2022/03/09 08:06:50;;;;;;;;;;;;;;;27.44;58.43;96972.92;586676;242;65321;-63
2022/03/09 08:09:17;;;;;;;;;;;;;;;27.47;57.86;96968.80;586590;242;68916;-63
2022/03/09 08:11:45;;;;;;;;;;;;;;;27.49;57.57;96976.59;586616;242;68785;-63
2022/03/09 08:14:13;;;;;;;;;;;;;;;27.51;58.56;96966.28;586515;242;65393;-62
2022/03/09 08:16:41;;;;;;;;;;;;;;;27.51;57.60;96967.08;584131;242;68681;-63
2022/03/09 08:19:08;;;;;;;;;;;;;;;27.53;58.46;96966.74;586706;242;68408;-63
2022/03/09 08:21:36;;;;;;;;;;;;;;;27.54;58.20;96969.14;586634;242;63371;-75
2022/03/09 08:24:04;;;;;;;;;;;;;;;27.56;59.12;96964.23;586599;242;66789;-76
2022/03/09 08:26:31;;;;;;;;;;;;;;;27.57;58.83;96960.41;586639;242;67046;-76
2022/03/09 08:28:59;;;;;;;;;;;;;;;27.58;57.48;96953.92;586689;242;63210;-76
2022/03/09 08:31:27;;;;;;;;;;;;;;;27.61;59.54;96964.08;586593;242;67468;-76
2022/03/09 08:33:55;;;;;;;;;;;;;;;27.62;58.54;96965.66;586626;242;68593;-76
2022/03/09 08:36:23;;;;;;;;;;;;;;;27.63;57.98;96961.05;586668;242;64262;-76
2022/03/09 08:38:50;;;;;;;;;;;;;;;27.63;58.92;96964.54;586625;242;68671;-75
2022/03/09 08:41:18;;;;;;;;;;;;;;;27.65;59.32;96965.03;586634;242;68623;-76
2022/03/09 08:43:45;;;;;;;;;;;;;;;27.67;58.51;96960.11;586709;242;65461;-74
2022/03/09 08:46:13;;;;;;;;;;;;;;;27.68;58.77;96955.50;588455;240;68518;-76
2022/03/09 08:48:41;;;;;;;;;;;;;;;27.69;58.27;96962.48;589180;240;68599;-75
2022/03/09 08:51:09;;;;;;;;;;;;;;;27.70;58.29;96958.69;589354;240;63144;-73
2022/03/09 08:53:36;;;;;;;;;;;;;;;27.71;58.21;96956.78;589272;240;69001;-76
2022/03/09 08:56:07;;;;;;;;;;;;;;;27.73;58.95;96957.27;589019;240;68579;-73
2022/03/09 08:58:35;;;;;;;;;;;;;;;27.72;57.19;96951.08;589276;240;67171;-73
2022/03/09 09:01:03;;;;;;;;;;;;;;;27.74;58.88;96953.44;589266;240;68896;-75
2022/03/09 09:03:30;;;;;;;;;;;;;;;27.76;58.57;96953.92;589388;240;68566;-75
2022/03/09 09:05:58;;;;;;;;;;;;;;;27.75;58.79;96958.54;589260;240;65527;-58
2022/03/09 09:08:25;;;;;;;;;;;;;;;27.75;52.65;96947.73;589142;240;65560;-73
2022/03/09 09:10:53;;;;;;;;;;;;;;;27.61;52.10;96950.59;589404;240;66379;-66
2022/03/09 09:13:20;;;;;;;;;;;;;;;27.75;54.26;96949.65;589327;240;63228;-66
2022/03/09 09:15:49;;;;;;;;;;;;;;;27.77;56.06;96952.80;589350;240;68675;-66
2022/03/09 09:18:16;;;;;;;;;;;;;;;27.78;56.30;96957.11;589336;240;66675;-65
2022/03/09 09:20:44;;;;;;;;;;;;;;;27.79;56.29;96958.69;589254;240;63375;-65
2022/03/09 09:23:11;;;;;;;;;;;;;;;27.79;56.33;96951.38;589231;240;68661;-65
2022/03/09 09:25:39;;;;;;;;;;;;;;;27.79;56.03;96947.89;589358;237;66727;-65
2022/03/09 09:28:06;;;;;;;;;;;;;;;27.81;56.36;96949.20;588816;240;63202;-67
2022/03/09 09:30:34;;;;;;;;;;;;;;;27.81;56.25;96945.70;584705;240;70448;-68
2022/03/09 09:33:02;;;;;;;;;;;;;;;27.75;54.93;96944.25;589298;238;68383;-69
2022/03/09 09:35:30;;;;;;;;;;;;;;;27.79;56.14;96943.28;589242;240;62765;-66
2022/03/09 09:38:06;;;;;;;;;;;;;;;27.79;56.84;96940.58;589313;240;66621;-64
2022/03/09 09:40:27;;;;;;;;;;;;;;;27.79;56.84;96942.48;589039;240;66902;-68
2022/03/09 09:42:55;;;;;;;;;;;;;;;27.80;56.89;96939.52;589288;238;63173;-64
2022/03/09 09:45:22;;;;;;;;;;;;;;;27.80;57.30;96944.09;589401;238;66484;-64
2022/03/09 09:47:51;;;;;;;;;;;;;;;27.80;57.16;96944.91;589581;240;66741;-66
2022/03/09 09:50:18;;;;;;;;;;;;;;;27.82;57.88;96949.98;589506;240;63307;-58
2022/03/09 09:52:46;;;;;;;;;;;;;;;27.81;56.39;96943.00;589602;240;66866;-56
2022/03/09 09:55:13;;;;;;;;;;;;;;;27.81;58.02;96948.41;589641;240;66269;-57
2022/03/09 09:57:41;;;;;;;;;;;;;;;27.78;57.36;96941.70;589585;240;63058;-57
2022/03/09 10:00:09;;;;;;;;;;;;;;;27.78;57.90;96943.61;589566;240;68269;-57
2022/03/09 10:02:43;;;;;;;;;;;;;;;27.76;57.59;96941.22;589585;240;68532;-56
2022/03/09 10:05:15;;;;;;;;;;;;;;;27.78;57.45;96938.21;589554;240;64087;-57
2022/03/09 10:08:01;;;;;;;;;;;;;;;27.77;57.69;96942.00;589630;240;68864;-58
2022/03/09 10:10:29;;;;;;;;;;;;;;;27.77;57.00;96942.80;589561;240;69348;-57
2022/03/09 10:13:16;;;;;;;;;;;;;;;27.77;56.70;96948.20;589629;240;66032;-58
2022/03/09 10:15:45;;;;;;;;;;;;;;;27.77;56.02;96947.41;589586;240;68438;-58
2022/03/09 10:18:14;;;;;;;;;;;;;;;27.78;56.39;96940.91;589560;240;68374;-58
2022/03/09 10:20:41;;;;;;;;;;;;;;;27.77;56.43;96942.00;589615;240;65581;-61
2022/03/09 10:23:09;;;;;;;;;;;;;;;27.79;56.22;96937.09;589570;240;66677;-59
2022/03/09 10:25:38;;;;;;;;;;;;;;;27.79;54.75;96934.39;589492;240;66638;-56
2022/03/09 10:28:09;;;;;;;;;;;;;;;27.80;56.50;96942.22;589583;240;65380;-71
2022/03/09 10:30:39;;;;;;;;;;;;;;;27.82;55.74;96933.78;589583;240;69786;-72
2022/03/09 10:33:08;;;;;;;;;;;;;;;27.82;55.02;96933.78;589506;240;66535;-73
2022/03/09 10:35:44;;;;;;;;;;;;;;;27.72;52.00;96932.17;589505;240;63276;-76
2022/03/09 10:38:10;;;;;;;;;;;;;;;27.83;53.42;96925.38;589169;240;68709;-75
2022/03/09 10:40:45;;;;;;;;;;;;;;;27.90;54.20;96927.58;588640;239;68436;-75
2022/03/09 10:43:14;;;;;;;;;;;;;;;27.95;55.31;96930.13;588771;240;63051;-73
2022/03/09 10:45:58;;;;;;;;;;;;;;;28.00;52.90;96919.16;589265;240;68679;-64
2022/03/09 10:48:26;;;;;;;;;;;;;;;28.03;54.52;96923.14;589209;240;68632;-65
2022/03/09 10:50:55;;;;;;;;;;;;;;;28.01;55.33;96915.34;589190;240;65364;-72
2022/03/09 10:53:23;;;;;;;;;;;;;;;28.01;54.39;96915.34;589048;240;68794;-62
2022/03/09 10:55:51;;;;;;;;;;;;;;;28.03;54.27;96912.33;589298;240;69154;-62
2022/03/09 10:58:20;;;;;;;;;;;;;;;28.04;55.69;96912.00;589322;240;65372;-63
2022/03/09 11:00:49;;;;;;;;;;;;;;;28.03;54.95;96913.13;589218;240;66538;-63
2022/03/09 11:03:22;;;;;;;;;;;;;;;28.06;56.15;96909.78;589311;240;66666;-61
2022/03/09 11:05:54;;;;;;;;;;;;;;;28.07;56.12;96907.86;589281;240;65151;-61
2022/03/09 11:08:23;;;;;;;;;;;;;;;28.08;56.12;96909.47;589270;240;68793;-62
2022/03/09 11:10:51;;;;;;;;;;;;;;;28.08;54.39;96906.77;589321;240;68760;-64
2022/03/09 11:13:19;;;;;;;;;;;;;;;28.11;55.73;96909.61;589346;240;65318;-64
2022/03/09 11:15:53;;;;;;;;;;;;;;;28.16;54.95;96914.07;589309;240;66103;-64
2022/03/09 11:18:20;;;;;;;;;;;;;;;28.17;53.27;96910.24;589024;240;66464;-64
2022/03/09 11:20:48;;;;;;;;;;;;;;;28.20;53.42;96909.59;589331;240;65180;-65
2022/03/09 11:23:17;;;;;;;;;;;;;;;28.23;54.90;96918.97;589311;240;69162;-64
2022/03/09 11:25:46;;;;;;;;;;;;;;;28.23;53.75;96917.06;589298;240;68749;-73
2022/03/09 11:28:14;;;;;;;;;;;;;;;28.24;56.04;96918.66;587445;240;65256;-74
2022/03/09 11:30:43;;;;;;;;;;;;;;;28.22;54.19;96925.50;589346;240;68625;-66
2022/03/09 11:33:12;;;;;;;;;;;;;;;28.27;49.90;96919.94;589305;240;68750;-66
2022/03/09 11:35:40;;;;;;;;;;;;;;;28.29;51.97;96917.69;589283;240;62726;-65
2022/03/09 11:38:26;;;;;;;;;;;;;;;28.30;51.71;96924.69;589280;240;68819;-62
2022/03/09 11:41:11;;;;;;;;;;;;;;;28.30;51.51;96928.19;589328;240;68760;-61
2022/03/09 11:43:39;;;;;;;;;;;;;;;28.31;51.31;96931.67;589268;240;65235;-63
2022/03/09 11:46:06;;;;;;;;;;;;;;;28.32;52.13;96930.58;589462;240;68799;-63
2022/03/09 11:48:50;;;;;;;;;;;;;;;28.32;53.61;96938.69;589541;240;68627;-62
2022/03/09 11:51:18;;;;;;;;;;;;;;;28.32;53.26;96939.47;589430;240;65552;-63
2022/03/09 11:53:47;;;;;;;;;;;;;;;28.33;52.44;96937.56;589583;240;68667;-67
2022/03/09 11:56:22;;;;;;;;;;;;;;;28.33;52.83;96942.97;589443;240;66425;-62
2022/03/09 11:59:08;;;;;;;;;;;;;;;28.34;52.77;96939.14;589281;240;65494;-56
2022/03/09 12:01:53;;;;;;;;;;;;;;;28.34;54.11;96939.14;589580;240;68847;-67
2022/03/09 12:04:25;;;;;;;;;;;;;;;28.33;55.67;96935.65;589590;240;68431;-68
2022/03/09 12:06:53;;;;;;;;;;;;;;;28.29;54.82;96936.59;588373;240;63122;-69
2022/03/09 12:09:22;;;;;;;;;;;;;;;28.27;55.90;96938.84;589558;240;66337;-69
2022/03/09 12:12:09;;;;;;;;;;;;;;;28.25;56.04;96939.16;589414;239;66834;-70
2022/03/09 12:14:54;;;;;;;;;;;;;;;28.24;55.14;96944.90;589611;240;65382;-67
2022/03/09 12:17:28;;;;;;;;;;;;;;;28.24;55.54;96945.69;589649;240;69596;-68
2022/03/09 12:20:04;;;;;;;;;;;;;;;28.24;56.13;96955.70;589532;240;67574;-69
2022/03/09 12:22:33;;;;;;;;;;;;;;;28.22;55.85;96944.41;587252;240;65426;-70
2022/03/09 12:25:18;;;;;;;;;;;;;;;28.23;55.04;96945.99;589427;239;68708;-69
2022/03/09 12:27:46;;;;;;;;;;;;;;;28.23;54.63;96948.70;589630;240;68761;-70
2022/03/09 12:30:15;;;;;;;;;;;;;;;28.23;54.98;96943.30;589624;240;65555;-62
2022/03/09 12:32:42;;;;;;;;;;;;;;;28.13;55.78;96933.62;585309;240;69328;-62
2022/03/09 12:35:11;;;;;;;;;;;;;;;28.16;54.34;96945.70;589575;240;68686;-70
2022/03/09 12:37:39;;;;;;;;;;;;;;;28.15;51.06;96935.98;589630;240;63222;-67
2022/03/09 12:40:07;;;;;;;;;;;;;;;28.16;50.05;96932.19;589605;240;66920;-66
2022/03/09 12:42:35;;;;;;;;;;;;;;;28.19;53.73;96940.45;589557;240;66694;-69
2022/03/09 12:45:03;;;;;;;;;;;;;;;28.19;53.46;96932.34;589551;240;65410;-68
2022/03/09 12:47:35;;;;;;;;;;;;;;;28.21;52.61;96924.72;589128;240;49965;-67
2022/03/09 12:50:03;;;;;;;;;;;;;;;28.22;53.44;96928.20;589396;240;69157;-67
2022/03/09 12:52:32;;;;;;;;;;;;;;;28.22;53.96;96930.91;589397;240;65339;-69
2022/03/09 12:55:01;;;;;;;;;;;;;;;28.23;52.10;96929.78;589315;240;66615;-69
2022/03/09 12:57:30;;;;;;;;;;;;;;;28.24;53.62;96928.69;589398;240;66533;-68